sensor_id;sensor_type;location;lat;lon;timestamp;pressure;altitude;pressure_sealevel;temperature;humidity
28027;BME280;15344;52.342;-1.290;2023-09-19T00:01:53;99200.15;;;15.08;90.12
28027;BME280;15344;52.342;-1.290;2023-09-19T00:04:18;99199.49;;;15.13;90.99
28027;BME280;15344;52.342;-1.290;2023-09-19T00:06:43;99199.98;;;15.74;86.75
28027;BME280;15344;52.342;-1.290;2023-09-19T00:09:08;99208.83;;;15.82;86.76
28027;BME280;15344;52.342;-1.290;2023-09-19T00:11:34;99215.19;;;15.63;87.09
28027;BME280;15344;52.342;-1.290;2023-09-19T00:13:59;99210.82;;;16.02;86.09
28027;BME280;15344;52.342;-1.290;2023-09-19T00:16:25;99217.46;;;15.17;86.34
28027;BME280;15344;52.342;-1.290;2023-09-19T00:18:50;99216.91;;;15.86;85.47
28027;BME280;15344;52.342;-1.290;2023-09-19T00:21:15;99206.46;;;15.34;88.80
28027;BME280;15344;52.342;-1.290;2023-09-19T00:23:41;99200.74;;;14.58;94.37
28027;BME280;15344;52.342;-1.290;2023-09-19T00:26:06;99200.02;;;15.09;93.19
28027;BME280;15344;52.342;-1.290;2023-09-19T00:28:31;99200.07;;;15.12;92.84
28027;BME280;15344;52.342;-1.290;2023-09-19T00:30:57;99203.05;;;15.02;92.30
28027;BME280;15344;52.342;-1.290;2023-09-19T00:33:22;99201.72;;;15.72;89.53
28027;BME280;15344;52.342;-1.290;2023-09-19T00:35:48;99202.96;;;15.35;88.80
28027;BME280;15344;52.342;-1.290;2023-09-19T00:38:12;99197.88;;;15.47;89.84
28027;BME280;15344;52.342;-1.290;2023-09-19T00:40:38;99198.69;;;15.48;89.91
28027;BME280;15344;52.342;-1.290;2023-09-19T00:43:03;99200.95;;;15.22;90.31
28027;BME280;15344;52.342;-1.290;2023-09-19T00:45:29;99207.05;;;15.76;88.76
28027;BME280;15344;52.342;-1.290;2023-09-19T00:47:54;99205.49;;;15.02;90.62
28027;BME280;15344;52.342;-1.290;2023-09-19T00:50:21;99200.46;;;15.25;88.65
28027;BME280;15344;52.342;-1.290;2023-09-19T00:52:46;99202.49;;;15.71;87.17
28027;BME280;15344;52.342;-1.290;2023-09-19T00:55:10;99197.53;;;15.45;87.25
28027;BME280;15344;52.342;-1.290;2023-09-19T00:57:37;99193.84;;;15.57;86.60
28027;BME280;15344;52.342;-1.290;2023-09-19T01:00:01;99193.66;;;15.34;88.32
28027;BME280;15344;52.342;-1.290;2023-09-19T01:02:26;99193.16;;;16.10;84.65
28027;BME280;15344;52.342;-1.290;2023-09-19T01:04:51;99187.85;;;15.34;87.25
28027;BME280;15344;52.342;-1.290;2023-09-19T01:07:16;99187.09;;;15.28;87.17
28027;BME280;15344;52.342;-1.290;2023-09-19T01:09:41;99184.57;;;15.64;86.73
28027;BME280;15344;52.342;-1.290;2023-09-19T01:12:08;99186.04;;;15.28;88.96
28027;BME280;15344;52.342;-1.290;2023-09-19T01:14:40;99188.32;;;15.09;91.82
28027;BME280;15344;52.342;-1.290;2023-09-19T01:17:03;99178.74;;;14.93;92.01
28027;BME280;15344;52.342;-1.290;2023-09-19T01:19:51;99179.78;;;15.03;93.49
28027;BME280;15344;52.342;-1.290;2023-09-19T01:21:53;99182.68;;;14.00;98.21
28027;BME280;15344;52.342;-1.290;2023-09-19T01:24:27;99181.46;;;14.49;95.76
28027;BME280;15344;52.342;-1.290;2023-09-19T01:26:50;99174.70;;;15.03;95.48
28027;BME280;15344;52.342;-1.290;2023-09-19T01:29:13;99178.56;;;14.73;94.68
28027;BME280;15344;52.342;-1.290;2023-09-19T01:31:32;99182.45;;;14.85;95.19
28027;BME280;15344;52.342;-1.290;2023-09-19T01:33:56;99191.06;;;14.50;96.14
28027;BME280;15344;52.342;-1.290;2023-09-19T01:36:20;99184.84;;;14.42;96.60
28027;BME280;15344;52.342;-1.290;2023-09-19T01:38:45;99182.69;;;14.88;95.67
28027;BME280;15344;52.342;-1.290;2023-09-19T01:41:12;99175.82;;;14.63;93.77
28027;BME280;15344;52.342;-1.290;2023-09-19T01:43:39;99173.57;;;14.87;92.56
28027;BME280;15344;52.342;-1.290;2023-09-19T01:46:08;99170.91;;;14.98;93.39
28027;BME280;15344;52.342;-1.290;2023-09-19T01:48:34;99179.60;;;15.07;92.31
28027;BME280;15344;52.342;-1.290;2023-09-19T01:50:58;99168.66;;;14.68;92.99
28027;BME280;15344;52.342;-1.290;2023-09-19T01:53:23;99168.63;;;15.16;92.83
28027;BME280;15344;52.342;-1.290;2023-09-19T01:55:47;99165.62;;;15.00;92.54
28027;BME280;15344;52.342;-1.290;2023-09-19T01:58:14;99164.71;;;15.12;90.79
28027;BME280;15344;52.342;-1.290;2023-09-19T02:00:36;99167.95;;;15.25;90.32
28027;BME280;15344;52.342;-1.290;2023-09-19T02:02:59;99166.32;;;15.09;91.33
28027;BME280;15344;52.342;-1.290;2023-09-19T02:05:24;99159.27;;;15.01;91.57
28027;BME280;15344;52.342;-1.290;2023-09-19T02:07:48;99161.95;;;15.13;91.17
28027;BME280;15344;52.342;-1.290;2023-09-19T02:10:14;99162.61;;;15.23;91.46
28027;BME280;15344;52.342;-1.290;2023-09-19T02:12:39;99163.12;;;15.03;92.03
28027;BME280;15344;52.342;-1.290;2023-09-19T02:15:05;99165.92;;;14.95;91.61
28027;BME280;15344;52.342;-1.290;2023-09-19T02:17:30;99169.88;;;15.14;91.55
28027;BME280;15344;52.342;-1.290;2023-09-19T02:19:55;99170.52;;;15.41;92.23
28027;BME280;15344;52.342;-1.290;2023-09-19T02:22:20;99168.85;;;15.11;91.61
28027;BME280;15344;52.342;-1.290;2023-09-19T02:24:45;99166.26;;;15.07;93.28
28027;BME280;15344;52.342;-1.290;2023-09-19T02:27:12;99170.31;;;14.78;93.73
28027;BME280;15344;52.342;-1.290;2023-09-19T02:29:36;99173.64;;;14.88;91.92
28027;BME280;15344;52.342;-1.290;2023-09-19T02:32:01;99175.59;;;14.83;94.09
28027;BME280;15344;52.342;-1.290;2023-09-19T02:34:27;99170.72;;;14.74;95.24
28027;BME280;15344;52.342;-1.290;2023-09-19T02:36:52;99171.35;;;14.97;95.11
28027;BME280;15344;52.342;-1.290;2023-09-19T02:39:17;99173.99;;;15.25;93.16
28027;BME280;15344;52.342;-1.290;2023-09-19T02:41:43;99161.37;;;14.60;96.71
28027;BME280;15344;52.342;-1.290;2023-09-19T02:44:08;99163.98;;;14.62;94.38
28027;BME280;15344;52.342;-1.290;2023-09-19T02:46:33;99156.66;;;14.54;96.95
28027;BME280;15344;52.342;-1.290;2023-09-19T02:48:58;99157.46;;;14.80;94.01
28027;BME280;15344;52.342;-1.290;2023-09-19T02:51:24;99153.36;;;14.98;92.93
28027;BME280;15344;52.342;-1.290;2023-09-19T02:53:49;99145.25;;;15.10;92.02
28027;BME280;15344;52.342;-1.290;2023-09-19T02:56:14;99144.27;;;15.17;91.66
28027;BME280;15344;52.342;-1.290;2023-09-19T02:58:40;99131.50;;;15.30;91.12
28027;BME280;15344;52.342;-1.290;2023-09-19T03:01:09;99128.31;;;15.08;93.26
28027;BME280;15344;52.342;-1.290;2023-09-19T03:03:30;99133.52;;;15.58;91.23
28027;BME280;15344;52.342;-1.290;2023-09-19T03:05:55;99132.48;;;15.85;89.98
28027;BME280;15344;52.342;-1.290;2023-09-19T03:08:21;99126.67;;;15.70;88.83
28027;BME280;15344;52.342;-1.290;2023-09-19T03:10:46;99117.69;;;15.43;91.75
28027;BME280;15344;52.342;-1.290;2023-09-19T03:13:12;99120.38;;;15.18;93.58
28027;BME280;15344;52.342;-1.290;2023-09-19T03:15:41;99114.44;;;15.06;96.16
28027;BME280;15344;52.342;-1.290;2023-09-19T03:18:02;99103.25;;;15.51;93.95
28027;BME280;15344;52.342;-1.290;2023-09-19T03:20:27;99105.33;;;15.24;95.58
28027;BME280;15344;52.342;-1.290;2023-09-19T03:22:52;99105.75;;;15.20;97.18
28027;BME280;15344;52.342;-1.290;2023-09-19T03:25:18;99104.13;;;15.38;96.53
28027;BME280;15344;52.342;-1.290;2023-09-19T03:27:43;99098.73;;;15.72;94.82
28027;BME280;15344;52.342;-1.290;2023-09-19T03:30:09;99095.15;;;15.87;95.53
28027;BME280;15344;52.342;-1.290;2023-09-19T03:32:34;99087.66;;;15.85;95.31
28027;BME280;15344;52.342;-1.290;2023-09-19T03:34:59;99080.19;;;15.86;95.32
28027;BME280;15344;52.342;-1.290;2023-09-19T03:37:24;99081.49;;;16.09;95.15
28027;BME280;15344;52.342;-1.290;2023-09-19T03:39:49;99082.52;;;15.81;97.01
28027;BME280;15344;52.342;-1.290;2023-09-19T03:42:15;99081.88;;;15.53;100.00
28027;BME280;15344;52.342;-1.290;2023-09-19T03:44:40;99074.11;;;15.75;100.00
28027;BME280;15344;52.342;-1.290;2023-09-19T03:47:05;99067.40;;;15.95;99.66
28027;BME280;15344;52.342;-1.290;2023-09-19T03:49:30;99066.02;;;15.53;100.00
28027;BME280;15344;52.342;-1.290;2023-09-19T03:51:56;99064.47;;;15.76;100.00
28027;BME280;15344;52.342;-1.290;2023-09-19T03:54:21;99060.42;;;15.47;100.00
28027;BME280;15344;52.342;-1.290;2023-09-19T03:56:46;99060.30;;;15.19;100.00
28027;BME280;15344;52.342;-1.290;2023-09-19T03:59:11;99056.18;;;15.12;100.00
28027;BME280;15344;52.342;-1.290;2023-09-19T04:01:37;99054.71;;;15.34;100.00
28027;BME280;15344;52.342;-1.290;2023-09-19T04:04:02;99054.43;;;15.41;100.00
28027;BME280;15344;52.342;-1.290;2023-09-19T04:06:27;99050.43;;;15.09;100.00
28027;BME280;15344;52.342;-1.290;2023-09-19T04:08:53;99050.95;;;14.60;100.00
28027;BME280;15344;52.342;-1.290;2023-09-19T04:11:19;99039.56;;;14.68;100.00
28027;BME280;15344;52.342;-1.290;2023-09-19T04:13:44;99031.36;;;14.99;100.00
28027;BME280;15344;52.342;-1.290;2023-09-19T04:16:09;99025.11;;;14.95;100.00
28027;BME280;15344;52.342;-1.290;2023-09-19T04:18:34;99020.04;;;14.49;100.00
28027;BME280;15344;52.342;-1.290;2023-09-19T04:21:00;99019.66;;;15.30;100.00
28027;BME280;15344;52.342;-1.290;2023-09-19T04:23:25;99009.83;;;15.05;100.00
28027;BME280;15344;52.342;-1.290;2023-09-19T04:25:50;99000.87;;;15.13;100.00
28027;BME280;15344;52.342;-1.290;2023-09-19T04:28:16;99000.93;;;14.91;100.00
28027;BME280;15344;52.342;-1.290;2023-09-19T04:30:42;99002.82;;;14.95;100.00
28027;BME280;15344;52.342;-1.290;2023-09-19T04:33:07;98989.37;;;15.59;100.00
28027;BME280;15344;52.342;-1.290;2023-09-19T04:35:32;98989.57;;;15.32;100.00
28027;BME280;15344;52.342;-1.290;2023-09-19T04:37:58;98987.86;;;15.62;100.00
28027;BME280;15344;52.342;-1.290;2023-09-19T04:40:23;98995.17;;;14.98;100.00
28027;BME280;15344;52.342;-1.290;2023-09-19T04:42:53;98992.22;;;15.02;100.00
28027;BME280;15344;52.342;-1.290;2023-09-19T04:45:14;98991.23;;;15.43;100.00
28027;BME280;15344;52.342;-1.290;2023-09-19T04:47:39;98985.55;;;15.14;100.00
28027;BME280;15344;52.342;-1.290;2023-09-19T04:50:07;98992.67;;;14.43;100.00
28027;BME280;15344;52.342;-1.290;2023-09-19T04:52:30;98989.17;;;15.42;100.00
28027;BME280;15344;52.342;-1.290;2023-09-19T04:54:55;98989.15;;;15.35;100.00
28027;BME280;15344;52.342;-1.290;2023-09-19T04:57:21;98987.49;;;15.31;100.00
28027;BME280;15344;52.342;-1.290;2023-09-19T04:59:46;98973.89;;;15.40;100.00
28027;BME280;15344;52.342;-1.290;2023-09-19T05:02:11;98972.06;;;15.10;100.00
28027;BME280;15344;52.342;-1.290;2023-09-19T05:04:37;98964.53;;;14.94;100.00
28027;BME280;15344;52.342;-1.290;2023-09-19T05:07:02;98968.62;;;14.23;100.00
28027;BME280;15344;52.342;-1.290;2023-09-19T05:09:27;98963.63;;;13.98;100.00
28027;BME280;15344;52.342;-1.290;2023-09-19T05:11:53;98956.31;;;14.52;100.00
28027;BME280;15344;52.342;-1.290;2023-09-19T05:14:18;98957.80;;;14.77;100.00
28027;BME280;15344;52.342;-1.290;2023-09-19T05:16:44;98945.10;;;14.17;100.00
28027;BME280;15344;52.342;-1.290;2023-09-19T05:19:09;98938.32;;;14.78;100.00
28027;BME280;15344;52.342;-1.290;2023-09-19T05:21:35;98934.82;;;14.88;100.00
28027;BME280;15344;52.342;-1.290;2023-09-19T05:24:00;98918.99;;;15.11;100.00
28027;BME280;15344;52.342;-1.290;2023-09-19T05:26:25;98913.28;;;14.03;100.00
28027;BME280;15344;52.342;-1.290;2023-09-19T05:28:50;98914.20;;;14.56;100.00
28027;BME280;15344;52.342;-1.290;2023-09-19T05:31:16;98919.50;;;13.90;100.00
28027;BME280;15344;52.342;-1.290;2023-09-19T05:33:41;98903.84;;;13.57;100.00
28027;BME280;15344;52.342;-1.290;2023-09-19T05:36:06;98894.63;;;14.40;100.00
28027;BME280;15344;52.342;-1.290;2023-09-19T05:38:31;98889.71;;;14.32;100.00
28027;BME280;15344;52.342;-1.290;2023-09-19T05:40:57;98894.63;;;14.45;100.00
28027;BME280;15344;52.342;-1.290;2023-09-19T05:43:22;98895.55;;;14.24;100.00
28027;BME280;15344;52.342;-1.290;2023-09-19T05:45:47;98902.92;;;13.85;100.00
28027;BME280;15344;52.342;-1.290;2023-09-19T05:48:15;98899.74;;;13.78;100.00
28027;BME280;15344;52.342;-1.290;2023-09-19T05:50:38;98893.61;;;14.02;100.00
28027;BME280;15344;52.342;-1.290;2023-09-19T05:53:03;98887.01;;;14.17;100.00
28027;BME280;15344;52.342;-1.290;2023-09-19T05:55:28;98886.31;;;14.09;100.00
28027;BME280;15344;52.342;-1.290;2023-09-19T05:57:53;98866.26;;;14.19;100.00
28027;BME280;15344;52.342;-1.290;2023-09-19T06:00:19;98867.73;;;14.24;100.00
28027;BME280;15344;52.342;-1.290;2023-09-19T06:02:44;98864.57;;;14.06;100.00
28027;BME280;15344;52.342;-1.290;2023-09-19T06:05:09;98858.19;;;14.35;100.00
28027;BME280;15344;52.342;-1.290;2023-09-19T06:07:35;98846.45;;;14.59;100.00
28027;BME280;15344;52.342;-1.290;2023-09-19T06:10:00;98843.56;;;14.67;100.00
28027;BME280;15344;52.342;-1.290;2023-09-19T06:12:25;98843.23;;;13.85;100.00
28027;BME280;15344;52.342;-1.290;2023-09-19T06:14:50;98844.06;;;14.41;100.00
28027;BME280;15344;52.342;-1.290;2023-09-19T06:17:16;98841.46;;;13.87;100.00
28027;BME280;15344;52.342;-1.290;2023-09-19T06:19:41;98843.83;;;14.63;100.00
28027;BME280;15344;52.342;-1.290;2023-09-19T06:22:06;98835.64;;;14.65;100.00
28027;BME280;15344;52.342;-1.290;2023-09-19T06:24:31;98838.27;;;14.30;100.00
28027;BME280;15344;52.342;-1.290;2023-09-19T06:26:57;98834.26;;;13.96;100.00
28027;BME280;15344;52.342;-1.290;2023-09-19T06:29:23;98834.26;;;13.90;100.00
28027;BME280;15344;52.342;-1.290;2023-09-19T06:31:48;98821.65;;;13.69;100.00
28027;BME280;15344;52.342;-1.290;2023-09-19T06:34:13;98817.22;;;13.72;100.00
28027;BME280;15344;52.342;-1.290;2023-09-19T06:36:38;98820.01;;;14.01;100.00
28027;BME280;15344;52.342;-1.290;2023-09-19T06:39:04;98811.86;;;14.43;100.00
28027;BME280;15344;52.342;-1.290;2023-09-19T06:41:29;98807.90;;;14.71;100.00
28027;BME280;15344;52.342;-1.290;2023-09-19T06:43:54;98809.80;;;14.37;100.00
28027;BME280;15344;52.342;-1.290;2023-09-19T06:46:20;98801.33;;;14.53;100.00
28027;BME280;15344;52.342;-1.290;2023-09-19T06:48:44;98802.70;;;15.35;100.00
28027;BME280;15344;52.342;-1.290;2023-09-19T06:51:10;98806.64;;;14.43;100.00
28027;BME280;15344;52.342;-1.290;2023-09-19T06:53:35;98797.06;;;14.45;100.00
28027;BME280;15344;52.342;-1.290;2023-09-19T06:56:00;98802.41;;;14.39;100.00
28027;BME280;15344;52.342;-1.290;2023-09-19T06:58:25;98797.96;;;14.54;100.00
28027;BME280;15344;52.342;-1.290;2023-09-19T07:00:51;98801.09;;;14.41;100.00
28027;BME280;15344;52.342;-1.290;2023-09-19T07:03:16;98808.42;;;14.27;100.00
28027;BME280;15344;52.342;-1.290;2023-09-19T07:05:41;98802.11;;;14.36;100.00
28027;BME280;15344;52.342;-1.290;2023-09-19T07:08:07;98800.65;;;14.60;100.00
28027;BME280;15344;52.342;-1.290;2023-09-19T07:10:32;98792.74;;;14.46;100.00
28027;BME280;15344;52.342;-1.290;2023-09-19T07:12:57;98787.32;;;15.14;100.00
28027;BME280;15344;52.342;-1.290;2023-09-19T07:15:22;98795.69;;;14.98;100.00
28027;BME280;15344;52.342;-1.290;2023-09-19T07:17:47;98782.10;;;15.20;100.00
28027;BME280;15344;52.342;-1.290;2023-09-19T07:20:13;98787.32;;;15.35;100.00
28027;BME280;15344;52.342;-1.290;2023-09-19T07:22:38;98785.45;;;14.86;100.00
28027;BME280;15344;52.342;-1.290;2023-09-19T07:25:04;98784.76;;;14.67;100.00
28027;BME280;15344;52.342;-1.290;2023-09-19T07:27:28;98785.88;;;15.02;100.00
28027;BME280;15344;52.342;-1.290;2023-09-19T07:29:54;98786.00;;;15.22;100.00
28027;BME280;15344;52.342;-1.290;2023-09-19T07:32:19;98790.61;;;14.95;100.00
28027;BME280;15344;52.342;-1.290;2023-09-19T07:34:44;98778.55;;;15.35;100.00
28027;BME280;15344;52.342;-1.290;2023-09-19T07:37:09;98782.35;;;14.99;100.00
28027;BME280;15344;52.342;-1.290;2023-09-19T07:39:34;98784.91;;;15.44;100.00
28027;BME280;15344;52.342;-1.290;2023-09-19T07:42:00;98782.37;;;14.55;100.00
28027;BME280;15344;52.342;-1.290;2023-09-19T07:44:25;98774.06;;;15.02;100.00
28027;BME280;15344;52.342;-1.290;2023-09-19T07:46:51;98778.92;;;15.48;100.00
28027;BME280;15344;52.342;-1.290;2023-09-19T07:49:16;98779.00;;;15.05;100.00
28027;BME280;15344;52.342;-1.290;2023-09-19T07:51:42;98774.40;;;15.21;100.00
28027;BME280;15344;52.342;-1.290;2023-09-19T07:54:07;98784.94;;;15.46;100.00
28027;BME280;15344;52.342;-1.290;2023-09-19T07:56:32;98780.72;;;15.41;100.00
28027;BME280;15344;52.342;-1.290;2023-09-19T07:58:57;98777.24;;;15.42;100.00
28027;BME280;15344;52.342;-1.290;2023-09-19T08:01:23;98794.52;;;15.37;100.00
28027;BME280;15344;52.342;-1.290;2023-09-19T08:03:48;98782.95;;;15.66;100.00
28027;BME280;15344;52.342;-1.290;2023-09-19T08:06:13;98785.73;;;15.69;100.00
28027;BME280;15344;52.342;-1.290;2023-09-19T08:08:38;98785.60;;;16.08;100.00
28027;BME280;15344;52.342;-1.290;2023-09-19T08:11:05;98776.31;;;15.82;100.00
28027;BME280;15344;52.342;-1.290;2023-09-19T08:13:29;98764.50;;;15.85;100.00
28027;BME280;15344;52.342;-1.290;2023-09-19T08:15:54;98759.69;;;16.00;100.00
28027;BME280;15344;52.342;-1.290;2023-09-19T08:18:19;98768.59;;;15.53;100.00
28027;BME280;15344;52.342;-1.290;2023-09-19T08:20:50;98754.83;;;15.13;100.00
28027;BME280;15344;52.342;-1.290;2023-09-19T08:23:09;98747.92;;;15.18;100.00
28027;BME280;15344;52.342;-1.290;2023-09-19T08:25:35;98747.71;;;15.12;100.00
28027;BME280;15344;52.342;-1.290;2023-09-19T08:28:00;98742.82;;;15.45;100.00
28027;BME280;15344;52.342;-1.290;2023-09-19T08:30:25;98750.37;;;15.86;100.00
28027;BME280;15344;52.342;-1.290;2023-09-19T08:32:50;98742.52;;;16.00;100.00
28027;BME280;15344;52.342;-1.290;2023-09-19T08:35:15;98738.50;;;15.92;100.00
28027;BME280;15344;52.342;-1.290;2023-09-19T08:37:42;98732.83;;;16.13;100.00
28027;BME280;15344;52.342;-1.290;2023-09-19T08:40:07;98729.74;;;15.72;100.00
28027;BME280;15344;52.342;-1.290;2023-09-19T08:42:31;98731.85;;;15.77;100.00
28027;BME280;15344;52.342;-1.290;2023-09-19T08:44:58;98714.86;;;16.31;100.00
28027;BME280;15344;52.342;-1.290;2023-09-19T08:47:30;98709.39;;;16.24;100.00
28027;BME280;15344;52.342;-1.290;2023-09-19T08:49:53;98709.85;;;15.85;100.00
28027;BME280;15344;52.342;-1.290;2023-09-19T08:52:19;98700.80;;;15.88;100.00
28027;BME280;15344;52.342;-1.290;2023-09-19T08:54:40;98696.89;;;16.19;100.00
28027;BME280;15344;52.342;-1.290;2023-09-19T08:57:07;98705.46;;;15.79;100.00
28027;BME280;15344;52.342;-1.290;2023-09-19T08:59:28;98695.76;;;16.03;100.00
28027;BME280;15344;52.342;-1.290;2023-09-19T09:01:53;98693.68;;;15.75;100.00
28027;BME280;15344;52.342;-1.290;2023-09-19T09:04:18;98693.10;;;16.25;100.00
28027;BME280;15344;52.342;-1.290;2023-09-19T09:06:44;98691.73;;;16.03;100.00
28027;BME280;15344;52.342;-1.290;2023-09-19T09:09:09;98694.89;;;16.39;100.00
28027;BME280;15344;52.342;-1.290;2023-09-19T09:11:34;98696.24;;;16.09;100.00
28027;BME280;15344;52.342;-1.290;2023-09-19T09:14:00;98693.30;;;16.48;100.00
28027;BME280;15344;52.342;-1.290;2023-09-19T09:16:25;98687.94;;;16.29;100.00
28027;BME280;15344;52.342;-1.290;2023-09-19T09:18:50;98693.83;;;16.65;100.00
28027;BME280;15344;52.342;-1.290;2023-09-19T09:21:15;98689.42;;;16.34;100.00
28027;BME280;15344;52.342;-1.290;2023-09-19T09:23:41;98689.22;;;16.67;100.00
28027;BME280;15344;52.342;-1.290;2023-09-19T09:26:06;98677.76;;;16.15;100.00
28027;BME280;15344;52.342;-1.290;2023-09-19T09:28:33;98672.90;;;16.81;100.00
28027;BME280;15344;52.342;-1.290;2023-09-19T09:30:57;98675.29;;;16.54;100.00
28027;BME280;15344;52.342;-1.290;2023-09-19T09:33:22;98674.12;;;16.47;100.00
28027;BME280;15344;52.342;-1.290;2023-09-19T09:35:48;98683.66;;;16.69;100.00
28027;BME280;15344;52.342;-1.290;2023-09-19T09:38:13;98687.65;;;16.40;100.00
28027;BME280;15344;52.342;-1.290;2023-09-19T09:40:47;98701.45;;;16.77;100.00
28027;BME280;15344;52.342;-1.290;2023-09-19T09:43:11;98710.73;;;16.51;100.00
28027;BME280;15344;52.342;-1.290;2023-09-19T09:45:28;98723.40;;;16.60;100.00
28027;BME280;15344;52.342;-1.290;2023-09-19T09:47:54;98700.76;;;16.92;100.00
28027;BME280;15344;52.342;-1.290;2023-09-19T09:50:24;98719.67;;;16.08;100.00
28027;BME280;15344;52.342;-1.290;2023-09-19T09:52:45;98705.74;;;16.96;100.00
28027;BME280;15344;52.342;-1.290;2023-09-19T09:55:09;98721.91;;;17.00;100.00
28027;BME280;15344;52.342;-1.290;2023-09-19T09:57:35;98718.27;;;17.11;100.00
28027;BME280;15344;52.342;-1.290;2023-09-19T10:00:00;98717.58;;;17.21;100.00
28027;BME280;15344;52.342;-1.290;2023-09-19T10:02:26;98714.65;;;17.19;100.00
28027;BME280;15344;52.342;-1.290;2023-09-19T10:04:51;98716.30;;;17.17;100.00
28027;BME280;15344;52.342;-1.290;2023-09-19T10:07:24;98715.34;;;17.35;100.00
28027;BME280;15344;52.342;-1.290;2023-09-19T10:09:47;98717.89;;;16.89;100.00
28027;BME280;15344;52.342;-1.290;2023-09-19T10:12:07;98718.71;;;17.75;100.00
28027;BME280;15344;52.342;-1.290;2023-09-19T10:14:32;98726.31;;;17.65;100.00
28027;BME280;15344;52.342;-1.290;2023-09-19T10:16:57;98720.79;;;17.86;100.00
28027;BME280;15344;52.342;-1.290;2023-09-19T10:19:25;98717.74;;;17.49;100.00
28027;BME280;15344;52.342;-1.290;2023-09-19T10:21:46;98718.19;;;18.07;100.00
28027;BME280;15344;52.342;-1.290;2023-09-19T10:24:11;98720.18;;;17.28;100.00
28027;BME280;15344;52.342;-1.290;2023-09-19T10:26:37;98715.57;;;17.86;100.00
28027;BME280;15344;52.342;-1.290;2023-09-19T10:29:03;98722.78;;;17.65;100.00
28027;BME280;15344;52.342;-1.290;2023-09-19T10:31:28;98716.79;;;17.74;100.00
28027;BME280;15344;52.342;-1.290;2023-09-19T10:33:53;98705.92;;;17.33;100.00
28027;BME280;15344;52.342;-1.290;2023-09-19T10:36:17;98706.46;;;17.82;100.00
28027;BME280;15344;52.342;-1.290;2023-09-19T10:38:43;98706.40;;;17.72;100.00
28027;BME280;15344;52.342;-1.290;2023-09-19T10:41:08;98702.95;;;17.61;100.00
28027;BME280;15344;52.342;-1.290;2023-09-19T10:43:33;98700.96;;;18.28;100.00
28027;BME280;15344;52.342;-1.290;2023-09-19T10:46:01;98695.19;;;18.08;100.00
28027;BME280;15344;52.342;-1.290;2023-09-19T10:48:23;98698.03;;;18.30;100.00
28027;BME280;15344;52.342;-1.290;2023-09-19T10:50:50;98684.24;;;17.86;100.00
28027;BME280;15344;52.342;-1.290;2023-09-19T10:53:14;98685.35;;;18.13;100.00
28027;BME280;15344;52.342;-1.290;2023-09-19T10:55:39;98691.53;;;18.10;100.00
28027;BME280;15344;52.342;-1.290;2023-09-19T10:58:05;98685.66;;;18.08;100.00
28027;BME280;15344;52.342;-1.290;2023-09-19T11:00:30;98696.61;;;17.75;100.00
28027;BME280;15344;52.342;-1.290;2023-09-19T11:05:19;98700.68;;;17.80;100.00
28027;BME280;15344;52.342;-1.290;2023-09-19T11:14:59;98686.50;;;18.55;100.00
28027;BME280;15344;52.342;-1.290;2023-09-19T11:17:31;98703.82;;;18.08;100.00
28027;BME280;15344;52.342;-1.290;2023-09-19T11:22:15;98703.68;;;18.18;100.00
28027;BME280;15344;52.342;-1.290;2023-09-19T11:24:40;98710.81;;;18.39;100.00
28027;BME280;15344;52.342;-1.290;2023-09-19T11:27:10;98722.86;;;18.08;100.00
28027;BME280;15344;52.342;-1.290;2023-09-19T11:29:31;98702.88;;;18.20;100.00
28027;BME280;15344;52.342;-1.290;2023-09-19T11:31:55;98717.79;;;18.32;100.00
28027;BME280;15344;52.342;-1.290;2023-09-19T11:36:45;98707.15;;;18.38;100.00
28027;BME280;15344;52.342;-1.290;2023-09-19T11:41:37;98713.41;;;18.12;100.00
28027;BME280;15344;52.342;-1.290;2023-09-19T11:46:27;98713.34;;;18.52;100.00
28027;BME280;15344;52.342;-1.290;2023-09-19T11:48:51;98712.95;;;18.70;100.00
28027;BME280;15344;52.342;-1.290;2023-09-19T11:51:18;98715.52;;;19.00;100.00
28027;BME280;15344;52.342;-1.290;2023-09-19T11:53:42;98716.50;;;19.14;100.00
28027;BME280;15344;52.342;-1.290;2023-09-19T11:56:06;98721.33;;;18.55;100.00
28027;BME280;15344;52.342;-1.290;2023-09-19T11:58:31;98717.55;;;18.88;100.00
28027;BME280;15344;52.342;-1.290;2023-09-19T12:00:57;98721.36;;;19.29;100.00
28027;BME280;15344;52.342;-1.290;2023-09-19T12:03:21;98717.51;;;18.44;100.00
28027;BME280;15344;52.342;-1.290;2023-09-19T12:05:47;98719.85;;;18.94;100.00
28027;BME280;15344;52.342;-1.290;2023-09-19T12:08:15;98735.40;;;19.51;100.00
28027;BME280;15344;52.342;-1.290;2023-09-19T12:10:45;98727.90;;;19.44;100.00
28027;BME280;15344;52.342;-1.290;2023-09-19T12:13:03;98722.92;;;19.03;100.00
28027;BME280;15344;52.342;-1.290;2023-09-19T12:15:28;98725.19;;;19.78;100.00
28027;BME280;15344;52.342;-1.290;2023-09-19T12:17:53;98727.65;;;19.03;100.00
28027;BME280;15344;52.342;-1.290;2023-09-19T12:20:18;98735.29;;;19.00;100.00
28027;BME280;15344;52.342;-1.290;2023-09-19T12:22:45;98724.25;;;19.56;100.00
28027;BME280;15344;52.342;-1.290;2023-09-19T12:25:09;98731.70;;;18.55;100.00
28027;BME280;15344;52.342;-1.290;2023-09-19T12:27:42;98733.55;;;18.53;100.00
28027;BME280;15344;52.342;-1.290;2023-09-19T12:29:59;98728.90;;;18.73;100.00
28027;BME280;15344;52.342;-1.290;2023-09-19T12:34:51;98732.86;;;19.28;100.00
28027;BME280;15344;52.342;-1.290;2023-09-19T12:37:15;98722.91;;;19.05;100.00
28027;BME280;15344;52.342;-1.290;2023-09-19T12:39:40;98723.54;;;19.03;100.00
28027;BME280;15344;52.342;-1.290;2023-09-19T12:42:05;98721.14;;;19.03;100.00
28027;BME280;15344;52.342;-1.290;2023-09-19T12:44:30;98717.11;;;19.70;100.00
28027;BME280;15344;52.342;-1.290;2023-09-19T12:46:55;98720.47;;;19.18;100.00
28027;BME280;15344;52.342;-1.290;2023-09-19T12:49:20;98724.57;;;19.06;100.00
28027;BME280;15344;52.342;-1.290;2023-09-19T12:51:46;98720.64;;;19.05;100.00
28027;BME280;15344;52.342;-1.290;2023-09-19T12:54:10;98720.00;;;19.00;100.00